createdAt,value
2019-01-11T00:01:40.559Z,0.87
2019-01-11T00:04:10.047Z,1.13
2019-01-11T00:06:39.610Z,1.03
2019-01-11T00:09:09.074Z,1.40
2019-01-11T00:11:38.522Z,0.83
2019-01-11T00:14:07.926Z,1.40
2019-01-11T00:16:37.394Z,2.27
2019-01-11T00:19:07.251Z,1.33
2019-01-11T00:21:36.784Z,1.37
2019-01-11T00:24:06.241Z,1.30
2019-01-11T00:26:35.751Z,1.23
2019-01-11T00:29:05.234Z,1.20
2019-01-11T00:31:34.690Z,0.80
2019-01-11T00:34:04.184Z,0.97
2019-01-11T00:36:33.649Z,1.37
2019-01-11T00:39:03.534Z,1.20
2019-01-11T00:41:33.016Z,1.00
2019-01-11T00:44:02.590Z,1.10
2019-01-11T00:46:32.090Z,1.30
2019-01-11T00:49:01.884Z,1.90
2019-01-11T00:51:31.302Z,1.70
2019-01-11T00:54:00.806Z,0.90
2019-01-11T00:56:30.315Z,1.33
2019-01-11T00:58:59.794Z,1.40
2019-01-11T01:01:29.297Z,1.40
2019-01-11T01:03:58.777Z,1.30
2019-01-11T01:06:28.233Z,1.13
2019-01-11T01:08:57.729Z,1.30
2019-01-11T01:11:27.294Z,1.13
2019-01-11T01:13:56.760Z,1.27
2019-01-11T01:16:26.358Z,1.30
2019-01-11T01:18:55.821Z,1.20
2019-01-11T01:21:25.290Z,2.10
2019-01-11T01:23:54.785Z,1.60
2019-01-11T01:26:24.377Z,2.20
2019-01-11T01:28:53.832Z,1.43
2019-01-11T01:31:23.372Z,1.90
2019-01-11T01:33:52.833Z,1.47
2019-01-11T01:36:22.301Z,2.10
2019-01-11T01:38:51.797Z,2.13
2019-01-11T01:41:21.258Z,1.50
2019-01-11T01:43:50.769Z,2.37
2019-01-11T01:46:20.274Z,1.90
2019-01-11T01:48:49.737Z,1.83
2019-01-11T01:51:19.195Z,1.70
2019-01-11T01:53:48.693Z,2.10
2019-01-11T01:56:18.154Z,1.40
2019-01-11T01:59:07.130Z,1.43
2019-01-11T02:01:36.655Z,1.77
2019-01-11T02:04:06.217Z,1.30
2019-01-11T02:06:35.712Z,1.27
2019-01-11T02:09:07.244Z,0.73
2019-01-11T02:11:36.851Z,1.77
2019-01-11T02:14:06.355Z,0.90
2019-01-11T02:16:35.820Z,0.90
2019-01-11T02:19:05.291Z,1.10
2019-01-11T02:21:34.786Z,1.03
2019-01-11T02:24:04.248Z,1.50
2019-01-11T02:26:33.712Z,0.87
2019-01-11T02:29:03.238Z,1.00
2019-01-11T02:31:32.701Z,0.97
2019-01-11T02:34:02.167Z,1.10
2019-01-11T02:36:31.678Z,0.83
2019-01-11T02:39:01.356Z,1.50
2019-01-11T02:41:30.826Z,1.20
2019-01-11T02:44:00.650Z,0.90
2019-01-11T02:46:30.120Z,0.80
2019-01-11T02:48:59.597Z,0.70
2019-01-11T02:51:29.175Z,0.80
2019-01-11T02:53:58.742Z,1.10
2019-01-11T02:56:28.302Z,0.93
2019-01-11T02:58:57.799Z,1.00
2019-01-11T03:01:27.283Z,0.80
2019-01-11T03:03:56.767Z,1.10
2019-01-11T03:06:26.254Z,0.80
2019-01-11T03:08:55.710Z,0.83
2019-01-11T03:11:25.276Z,1.07
2019-01-11T03:13:54.783Z,0.93
2019-01-11T03:16:24.256Z,0.90
2019-01-11T03:18:53.815Z,0.87
2019-01-11T03:21:23.315Z,0.87
2019-01-11T03:23:52.772Z,0.97
2019-01-11T03:26:22.250Z,0.90
2019-01-11T03:28:51.680Z,0.83
2019-01-11T03:31:22.727Z,1.20
2019-01-11T03:33:52.203Z,1.10
2019-01-11T03:36:21.650Z,1.27
2019-01-11T03:38:51.114Z,1.57
2019-01-11T03:41:20.578Z,1.00
2019-01-11T03:43:50.090Z,1.00
2019-01-11T03:46:19.553Z,0.90
2019-01-11T03:48:49.015Z,0.90
2019-01-11T03:51:18.535Z,1.07
2019-01-11T03:53:48.002Z,0.80
2019-01-11T03:56:17.458Z,1.67
2019-01-11T03:58:47.054Z,1.27
2019-01-11T04:01:16.516Z,1.20
2019-01-11T04:03:46.093Z,1.30
2019-01-11T04:06:15.595Z,1.67
2019-01-11T04:08:45.060Z,1.27
2019-01-11T04:11:14.567Z,1.23
2019-01-11T04:13:44.055Z,1.07
2019-01-11T04:16:13.522Z,0.90
2019-01-11T04:18:44.558Z,1.40
2019-01-11T04:21:14.054Z,3.50
2019-01-11T04:23:43.518Z,3.40
2019-01-11T04:26:12.983Z,1.80
2019-01-11T04:28:42.670Z,1.27
2019-01-11T04:31:12.143Z,1.30
2019-01-11T04:33:41.614Z,1.60
2019-01-11T04:36:11.135Z,1.10
2019-01-11T04:38:40.700Z,0.90
2019-01-11T04:41:10.134Z,1.63
2019-01-11T04:43:39.632Z,2.10
2019-01-11T04:46:09.029Z,2.23
2019-01-11T04:48:38.537Z,2.30
2019-01-11T04:51:08.039Z,2.30
2019-01-11T04:53:37.504Z,1.97
2019-01-11T04:56:06.994Z,1.90
2019-01-11T04:58:36.454Z,1.70
2019-01-11T05:01:05.931Z,1.40
2019-01-11T05:03:35.559Z,1.37
2019-01-11T05:06:05.038Z,1.97
2019-01-11T05:08:34.556Z,1.40
2019-01-11T05:11:04.105Z,1.90
2019-01-11T05:13:37.366Z,1.37
2019-01-11T05:16:06.875Z,1.90
2019-01-11T05:18:36.347Z,3.00
2019-01-11T05:21:05.919Z,1.80
2019-01-11T05:23:35.425Z,1.73
2019-01-11T05:26:04.922Z,1.23
2019-01-11T05:28:34.415Z,1.33
2019-01-11T05:31:03.928Z,1.30
2019-01-11T05:33:34.842Z,1.07
2019-01-11T05:36:04.474Z,1.63
2019-01-11T05:38:33.979Z,1.60
2019-01-11T05:41:03.461Z,1.00
2019-01-11T05:43:32.943Z,0.87
2019-01-11T05:46:02.439Z,1.10
2019-01-11T05:48:31.933Z,1.00
2019-01-11T05:51:01.491Z,1.37
2019-01-11T05:53:31.013Z,1.30
2019-01-11T05:56:00.700Z,1.83
2019-01-11T05:58:31.487Z,1.30
2019-01-11T06:01:00.991Z,1.57
2019-01-11T06:03:30.570Z,1.60
2019-01-11T06:06:00.056Z,1.60
2019-01-11T06:08:29.719Z,1.23
2019-01-11T06:10:59.189Z,1.77
2019-01-11T06:13:28.649Z,1.57
2019-01-11T06:15:58.179Z,1.37
2019-01-11T06:18:27.809Z,1.33
2019-01-11T06:20:57.462Z,1.53
2019-01-11T06:23:26.982Z,1.67
2019-01-11T06:25:56.459Z,1.80
2019-01-11T06:28:25.940Z,2.00
2019-01-11T06:30:55.532Z,2.23
2019-01-11T06:33:25.003Z,2.73
2019-01-11T06:35:54.477Z,1.60
2019-01-11T06:38:23.921Z,2.90
2019-01-11T06:40:53.401Z,2.33
2019-01-11T06:43:22.889Z,2.50
2019-01-11T06:45:52.401Z,3.23
2019-01-11T06:48:23.471Z,1.67
2019-01-11T06:50:53.241Z,2.47
2019-01-11T06:53:22.659Z,2.87
2019-01-11T06:55:52.119Z,2.70
2019-01-11T06:58:21.659Z,2.70
2019-01-11T07:00:51.166Z,2.63
2019-01-11T07:03:21.768Z,2.77
2019-01-11T07:05:51.340Z,2.47
2019-01-11T07:08:20.840Z,2.57
2019-01-11T07:10:50.315Z,2.03
2019-01-11T07:13:19.880Z,1.87
2019-01-11T07:15:49.414Z,2.40
2019-01-11T07:18:18.878Z,2.43
2019-01-11T07:20:48.359Z,2.13
2019-01-11T07:23:17.871Z,3.10
2019-01-11T07:25:47.778Z,2.93
2019-01-11T07:28:17.615Z,3.27
2019-01-11T07:30:51.995Z,3.20
2019-01-11T07:33:23.225Z,2.67
2019-01-11T07:35:54.467Z,3.13
2019-01-11T07:38:23.951Z,2.70
2019-01-11T07:40:53.439Z,2.87
2019-01-11T07:43:22.925Z,3.03
2019-01-11T07:45:52.435Z,2.63
2019-01-11T07:48:21.907Z,3.13
2019-01-11T07:50:51.388Z,3.57
2019-01-11T07:53:20.881Z,3.40
2019-01-11T07:55:50.384Z,3.83
2019-01-11T07:58:19.888Z,3.20
2019-01-11T08:00:49.391Z,3.83
2019-01-11T08:03:18.877Z,2.93
2019-01-11T08:05:48.363Z,4.97
2019-01-11T08:08:17.874Z,4.60
2019-01-11T08:10:47.351Z,3.17
2019-01-11T08:13:16.789Z,1.83
2019-01-11T08:15:46.329Z,2.73
2019-01-11T08:18:15.758Z,2.00
2019-01-11T08:20:45.246Z,1.73
2019-01-11T08:23:14.753Z,2.40
2019-01-11T08:25:44.268Z,3.77
2019-01-11T08:28:13.978Z,5.27
2019-01-11T08:30:43.476Z,5.53
2019-01-11T08:33:18.551Z,7.10
2019-01-11T08:35:44.161Z,8.30
2019-01-11T08:38:13.651Z,7.50
2019-01-11T08:40:43.121Z,7.20
2019-01-11T08:43:12.590Z,8.10
2019-01-11T08:45:42.147Z,7.00
2019-01-11T08:48:11.599Z,7.50
2019-01-11T08:50:41.060Z,7.60
2019-01-11T08:53:10.560Z,7.07
2019-01-11T08:55:40.025Z,6.97
2019-01-11T08:58:09.611Z,7.30
2019-01-11T09:00:39.109Z,6.20
2019-01-11T09:03:08.574Z,6.53
2019-01-11T09:05:37.981Z,6.70
2019-01-11T09:08:07.481Z,6.33
2019-01-11T09:10:36.953Z,6.10
2019-01-11T09:13:06.415Z,6.63
2019-01-11T09:15:36.008Z,7.17
2019-01-11T09:18:12.981Z,6.83
2019-01-11T09:20:42.792Z,7.23
2019-01-11T09:23:12.263Z,8.17
2019-01-11T09:25:41.728Z,6.80
2019-01-11T09:28:11.222Z,6.47
2019-01-11T09:30:40.617Z,6.10
2019-01-11T09:33:10.096Z,5.90
2019-01-11T09:35:39.589Z,6.10
2019-01-11T09:38:09.078Z,6.80
2019-01-11T09:40:38.612Z,6.97
2019-01-11T09:43:08.108Z,5.90
2019-01-11T09:45:37.686Z,6.40
2019-01-11T09:48:07.156Z,6.30
2019-01-11T09:50:36.663Z,6.67
2019-01-11T09:53:06.130Z,5.63
2019-01-11T09:55:35.608Z,6.73
2019-01-11T09:58:05.086Z,6.17
2019-01-11T10:00:34.551Z,5.30
2019-01-11T10:03:05.414Z,5.47
2019-01-11T10:05:34.918Z,6.27
2019-01-11T10:08:04.386Z,5.83
2019-01-11T10:10:53.271Z,5.07
2019-01-11T10:13:22.724Z,5.27
2019-01-11T10:15:52.187Z,4.93
2019-01-11T10:18:21.709Z,5.00
2019-01-11T10:20:51.677Z,6.20
2019-01-11T10:23:21.151Z,5.97
2019-01-11T10:25:50.643Z,5.67
2019-01-11T10:28:20.107Z,5.80
2019-01-11T10:30:49.577Z,4.97
2019-01-11T10:33:19.066Z,5.07
2019-01-11T10:35:49.423Z,5.27
2019-01-11T10:38:18.895Z,4.53
2019-01-11T10:40:48.378Z,4.90
2019-01-11T10:43:17.963Z,5.40
2019-01-11T10:45:47.421Z,4.53
2019-01-11T10:48:16.986Z,3.47
2019-01-11T10:50:46.518Z,3.60
2019-01-11T10:53:16.029Z,3.13
2019-01-11T10:55:45.573Z,3.60
2019-01-11T10:58:15.048Z,4.00
2019-01-11T11:00:44.518Z,3.80
2019-01-11T11:03:14.147Z,4.70
2019-01-11T11:05:43.606Z,3.57
2019-01-11T11:08:13.085Z,4.23
2019-01-11T11:10:42.952Z,4.40
2019-01-11T11:13:12.434Z,4.20
2019-01-11T11:15:43.614Z,4.30
2019-01-11T11:18:13.097Z,3.90
2019-01-11T11:20:42.568Z,4.70
2019-01-11T11:23:12.030Z,4.70
2019-01-11T11:25:41.531Z,4.13
2019-01-11T11:28:11.000Z,4.83
2019-01-11T11:30:40.474Z,4.03
2019-01-11T11:33:09.985Z,3.33
2019-01-11T11:35:39.475Z,3.53
2019-01-11T11:38:08.959Z,3.40
2019-01-11T11:40:38.474Z,3.10
2019-01-11T11:43:07.952Z,2.17
2019-01-11T11:45:37.439Z,1.70
2019-01-11T11:48:06.938Z,3.30
2019-01-11T11:50:36.406Z,2.60
2019-01-11T11:53:05.910Z,1.70
2019-01-11T11:55:35.385Z,1.40
2019-01-11T11:58:04.863Z,1.50
2019-01-11T12:00:34.385Z,1.60
2019-01-11T12:03:03.874Z,1.30
2019-01-11T12:05:33.328Z,1.20
2019-01-11T12:08:02.755Z,1.27
2019-01-11T12:10:32.348Z,1.00
2019-01-11T12:13:01.880Z,1.00
2019-01-11T12:15:31.387Z,1.33
2019-01-11T12:18:00.955Z,1.27
2019-01-11T12:20:30.431Z,1.60
2019-01-11T12:22:59.931Z,1.30
2019-01-11T12:25:29.415Z,1.50
2019-01-11T12:27:58.897Z,1.63
2019-01-11T12:30:28.387Z,1.20
2019-01-11T12:32:58.027Z,1.30
2019-01-11T12:35:27.503Z,1.30
2019-01-11T12:37:56.991Z,1.70
2019-01-11T12:40:26.449Z,1.17
2019-01-11T12:42:55.948Z,1.70
2019-01-11T12:45:25.425Z,1.10
2019-01-11T12:47:54.906Z,1.00
2019-01-11T12:50:25.187Z,1.40
2019-01-11T12:52:54.680Z,1.20
2019-01-11T12:55:43.539Z,1.53
2019-01-11T12:58:13.015Z,1.00
2019-01-11T13:00:42.487Z,1.30
2019-01-11T13:03:11.991Z,1.17
2019-01-11T13:05:41.461Z,1.60
2019-01-11T13:08:10.940Z,1.40
2019-01-11T13:10:40.510Z,1.10
2019-01-11T13:13:09.972Z,1.20
2019-01-11T13:15:39.444Z,1.23
2019-01-11T13:18:08.954Z,1.60
2019-01-11T13:20:38.427Z,1.47
2019-01-11T13:23:07.894Z,1.13
2019-01-11T13:25:37.408Z,1.10
2019-01-11T13:28:06.879Z,1.50
2019-01-11T13:30:36.355Z,1.83
2019-01-11T13:33:05.842Z,1.30
2019-01-11T13:35:35.309Z,1.40
2019-01-11T13:38:04.863Z,1.90
2019-01-11T13:40:34.373Z,4.13
2019-01-11T13:43:03.844Z,1.37
2019-01-11T13:45:33.312Z,1.90
2019-01-11T13:48:02.827Z,1.70
2019-01-11T13:50:38.966Z,1.00
2019-01-11T13:53:09.268Z,1.03
2019-01-11T13:55:38.755Z,1.40
2019-01-11T13:58:08.239Z,0.90
2019-01-11T14:00:37.742Z,1.90
2019-01-11T14:03:07.216Z,1.10
2019-01-11T14:05:36.680Z,1.13
2019-01-11T14:08:06.172Z,1.03
2019-01-11T14:10:35.654Z,1.20
2019-01-11T14:13:05.128Z,1.80
2019-01-11T14:15:34.624Z,1.10
2019-01-11T14:18:04.114Z,1.30
2019-01-11T14:20:33.579Z,0.97
2019-01-11T14:23:03.074Z,1.27
2019-01-11T14:25:32.542Z,1.00
2019-01-11T14:28:02.031Z,1.40
2019-01-11T14:30:31.587Z,1.17
2019-01-11T14:33:01.061Z,1.60
2019-01-11T14:35:30.555Z,1.33
2019-01-11T14:38:00.066Z,1.13
2019-01-11T14:40:29.536Z,1.80
2019-01-11T14:42:59.118Z,4.70
2019-01-11T14:45:28.641Z,2.07
2019-01-11T14:47:58.106Z,1.23
2019-01-11T14:50:27.573Z,1.13
2019-01-11T14:52:57.003Z,1.13
2019-01-11T14:55:26.469Z,1.10
2019-01-11T14:57:56.051Z,1.27
2019-01-11T15:00:25.550Z,1.30
2019-01-11T15:02:55.115Z,1.03
2019-01-11T15:05:24.598Z,1.10
2019-01-11T15:07:54.156Z,0.87
2019-01-11T15:10:23.635Z,0.83
2019-01-11T15:12:53.104Z,0.90
2019-01-11T15:15:22.608Z,1.50
2019-01-11T15:17:52.070Z,1.40
2019-01-11T15:20:21.562Z,0.83
2019-01-11T15:22:51.032Z,1.30
2019-01-11T15:25:20.543Z,2.00
2019-01-11T15:27:50.019Z,1.87
2019-01-11T15:30:20.176Z,1.33
2019-01-11T15:32:49.741Z,1.10
2019-01-11T15:35:19.198Z,1.67
2019-01-11T15:37:48.668Z,1.47
2019-01-11T15:40:24.151Z,1.37
2019-01-11T15:42:53.597Z,1.90
2019-01-11T15:45:23.073Z,1.67
2019-01-11T15:47:52.575Z,1.90
2019-01-11T15:50:45.080Z,1.80
2019-01-11T15:53:14.565Z,2.57
2019-01-11T15:55:44.026Z,1.87
2019-01-11T15:58:13.516Z,1.77
2019-01-11T16:00:48.672Z,1.53
2019-01-11T16:03:18.142Z,1.83
2019-01-11T16:05:47.613Z,1.30
2019-01-11T16:08:17.107Z,1.60
2019-01-11T16:11:15.039Z,1.63
2019-01-11T16:14:14.797Z,1.57
2019-01-11T16:16:44.256Z,1.97
2019-01-11T16:19:13.721Z,4.27
2019-01-11T16:21:43.217Z,2.90
2019-01-11T16:24:12.792Z,2.97
2019-01-11T16:26:42.349Z,2.90
2019-01-11T16:29:11.840Z,2.00
2019-01-11T16:31:41.313Z,2.50
2019-01-11T16:34:10.776Z,2.20
2019-01-11T16:36:40.301Z,1.87
2019-01-11T16:39:09.752Z,1.90
2019-01-11T16:41:39.218Z,1.73
2019-01-11T16:44:08.722Z,2.43
2019-01-11T16:46:38.200Z,1.83
2019-01-11T16:49:07.662Z,2.47
2019-01-11T16:51:37.177Z,3.60
2019-01-11T16:54:06.697Z,5.10
2019-01-11T16:56:36.160Z,3.60
2019-01-11T16:59:05.659Z,2.83
2019-01-11T17:01:35.138Z,3.13
2019-01-11T17:04:05.432Z,2.90
2019-01-11T17:06:34.891Z,3.00
2019-01-11T17:09:07.075Z,2.50
2019-01-11T17:11:36.599Z,1.80
2019-01-11T17:14:06.691Z,2.80
2019-01-11T17:16:36.269Z,4.13
2019-01-11T17:19:05.842Z,2.63
2019-01-11T17:21:35.336Z,2.93
2019-01-11T17:24:04.926Z,3.70
2019-01-11T17:26:34.379Z,3.80
2019-01-11T17:29:03.906Z,3.37
2019-01-11T17:31:33.362Z,3.17
2019-01-11T17:34:02.842Z,2.93
2019-01-11T17:36:32.453Z,2.73
2019-01-11T17:39:02.082Z,2.70
2019-01-11T17:41:31.591Z,3.40
2019-01-11T17:44:01.043Z,2.70
2019-01-11T17:46:30.521Z,2.60
2019-01-11T17:49:00.019Z,2.53
2019-01-11T17:51:29.487Z,2.73
2019-01-11T17:53:58.963Z,2.63
2019-01-11T17:56:28.503Z,2.83
2019-01-11T17:58:58.014Z,2.73
2019-01-11T18:01:27.875Z,3.80
2019-01-11T18:03:57.382Z,5.43
2019-01-11T18:06:26.846Z,6.03
2019-01-11T18:08:56.329Z,6.60
2019-01-11T18:11:25.809Z,5.90
2019-01-11T18:13:55.282Z,7.43
2019-01-11T18:16:24.773Z,8.30
2019-01-11T18:19:15.179Z,7.40
2019-01-11T18:21:44.663Z,6.50
2019-01-11T18:24:14.144Z,6.03
2019-01-11T18:26:43.647Z,5.60
2019-01-11T18:29:13.104Z,6.00
2019-01-11T18:31:42.591Z,5.70
2019-01-11T18:34:12.092Z,6.33
2019-01-11T18:36:41.703Z,6.60
2019-01-11T18:39:11.177Z,7.90
2019-01-11T18:41:40.680Z,7.57
2019-01-11T18:44:10.150Z,7.50
2019-01-11T18:46:39.622Z,6.93
2019-01-11T18:49:09.127Z,7.00
2019-01-11T18:51:38.597Z,6.90
2019-01-11T18:54:08.103Z,7.03
2019-01-11T18:56:37.629Z,7.30
2019-01-11T18:59:07.102Z,6.23
2019-01-11T19:01:36.601Z,6.20
2019-01-11T19:04:06.164Z,7.83
2019-01-11T19:06:35.649Z,6.83
2019-01-11T19:09:08.128Z,6.23
2019-01-11T19:11:37.618Z,6.40
2019-01-11T19:14:07.086Z,6.10
2019-01-11T19:16:36.553Z,6.20
2019-01-11T19:19:06.055Z,6.17
2019-01-11T19:21:35.539Z,5.70
2019-01-11T19:24:05.041Z,5.70
2019-01-11T19:26:34.514Z,6.03
2019-01-11T19:29:03.995Z,5.73
2019-01-11T19:31:33.515Z,5.97
2019-01-11T19:34:03.013Z,5.57
2019-01-11T19:36:32.476Z,6.50
2019-01-11T19:39:02.170Z,5.47
2019-01-11T19:41:31.653Z,6.80
2019-01-11T19:44:01.129Z,6.30
2019-01-11T19:46:30.643Z,6.57
2019-01-11T19:49:00.202Z,7.60
2019-01-11T19:51:29.706Z,14.30
2019-01-11T19:53:59.201Z,8.10
2019-01-11T19:56:29.664Z,8.60
2019-01-11T19:58:59.139Z,6.17
2019-01-11T20:01:28.749Z,6.30
2019-01-11T20:03:58.342Z,7.00
2019-01-11T20:06:27.861Z,5.97
2019-01-11T20:08:57.348Z,7.30
2019-01-11T20:11:26.849Z,9.17
2019-01-11T20:13:56.350Z,8.37
2019-01-11T20:16:25.858Z,6.67
2019-01-11T20:18:55.308Z,6.50
2019-01-11T20:21:24.773Z,9.40
2019-01-11T20:23:54.280Z,7.90
2019-01-11T20:26:23.760Z,7.10
2019-01-11T20:28:53.247Z,6.30
2019-01-11T20:31:22.757Z,6.10
2019-01-11T20:33:52.329Z,5.63
2019-01-11T20:36:21.896Z,5.90
2019-01-11T20:38:51.416Z,5.33
2019-01-11T20:41:20.905Z,6.53
2019-01-11T20:43:50.412Z,11.17
2019-01-11T20:46:19.876Z,9.10
2019-01-11T20:48:49.430Z,10.07
2019-01-11T20:51:18.871Z,8.17
2019-01-11T20:53:48.374Z,6.80
2019-01-11T20:56:17.950Z,6.40
2019-01-11T20:58:47.414Z,5.43
2019-01-11T21:01:17.749Z,6.27
2019-01-11T21:03:47.216Z,7.90
2019-01-11T21:06:16.684Z,9.43
2019-01-11T21:08:46.279Z,7.17
2019-01-11T21:11:15.752Z,5.70
2019-01-11T21:13:45.268Z,4.70
2019-01-11T21:16:14.775Z,5.20
2019-01-11T21:18:44.339Z,5.90
2019-01-11T21:21:13.822Z,4.90
2019-01-11T21:23:48.650Z,5.73
2019-01-11T21:26:14.710Z,5.40
2019-01-11T21:28:44.176Z,5.07
2019-01-11T21:31:13.771Z,5.83
2019-01-11T21:33:43.259Z,6.10
2019-01-11T21:36:12.879Z,5.63
2019-01-11T21:38:42.415Z,17.57
2019-01-11T21:41:11.863Z,8.70
2019-01-11T21:43:41.395Z,5.77
2019-01-11T21:46:10.898Z,4.93
2019-01-11T21:48:40.388Z,5.13
2019-01-11T21:51:09.873Z,5.37
2019-01-11T21:53:39.353Z,5.80
2019-01-11T21:56:08.764Z,6.40
2019-01-11T21:58:38.247Z,9.90
2019-01-11T22:01:07.750Z,5.60
2019-01-11T22:03:37.234Z,5.20
2019-01-11T22:06:06.701Z,5.53
2019-01-11T22:08:36.329Z,4.93
2019-01-11T22:11:05.847Z,5.33
2019-01-11T22:13:35.287Z,5.97
2019-01-11T22:16:04.797Z,5.67
2019-01-11T22:18:34.254Z,5.00
2019-01-11T22:21:03.739Z,5.30
2019-01-11T22:23:33.229Z,5.37
2019-01-11T22:26:02.694Z,5.87
2019-01-11T22:28:32.178Z,5.80
2019-01-11T22:31:01.685Z,5.43
2019-01-11T22:33:31.166Z,5.23
2019-01-11T22:36:00.664Z,5.30
2019-01-11T22:38:30.073Z,6.63
2019-01-11T22:40:59.544Z,5.73
2019-01-11T22:43:29.029Z,5.50
2019-01-11T22:45:58.495Z,5.50
2019-01-11T22:48:27.999Z,5.47
2019-01-11T22:50:57.469Z,6.10
2019-01-11T22:53:26.939Z,5.93
2019-01-11T22:55:56.451Z,6.60
2019-01-11T22:58:25.945Z,9.97
2019-01-11T23:01:03.351Z,12.17
2019-01-11T23:03:37.550Z,13.70
2019-01-11T23:06:23.770Z,17.00
2019-01-11T23:08:53.412Z,16.70
2019-01-11T23:11:54.146Z,14.70
2019-01-11T23:14:23.729Z,12.50
2019-01-11T23:16:57.407Z,14.43
2019-01-11T23:19:26.884Z,14.97
2019-01-11T23:21:56.459Z,14.27
2019-01-11T23:24:25.928Z,16.00
2019-01-11T23:26:55.390Z,13.37
2019-01-11T23:29:24.892Z,13.30
2019-01-11T23:31:54.364Z,10.30
2019-01-11T23:34:23.849Z,8.40
2019-01-11T23:36:53.345Z,9.50
2019-01-11T23:39:22.842Z,9.03
2019-01-11T23:41:52.328Z,8.50
2019-01-11T23:44:21.802Z,8.10
2019-01-11T23:46:51.295Z,7.80
2019-01-11T23:49:20.902Z,7.70
2019-01-11T23:51:52.293Z,7.27
2019-01-11T23:54:24.629Z,8.30
2019-01-11T23:56:52.988Z,7.47
2019-01-11T23:59:22.573Z,7.70
